sensor_id;sensor_type;location;lat;lon;timestamp;P1;durP1;ratioP1;P2;durP2;ratioP2
51174;SDS011;37240;50.104;20.010;2022-08-23T00:01:51;2.85;;;2.65;;
51174;SDS011;37240;50.104;20.010;2022-08-23T00:06:54;3.05;;;2.85;;
51174;SDS011;37240;50.104;20.010;2022-08-23T00:12:16;2.92;;;2.72;;
51174;SDS011;37240;50.104;20.010;2022-08-23T00:17:17;3.83;;;3.53;;
51174;SDS011;37240;50.104;20.010;2022-08-23T00:22:18;4.05;;;3.50;;
51174;SDS011;37240;50.104;20.010;2022-08-23T00:27:19;3.25;;;3.00;;
51174;SDS011;37240;50.104;20.010;2022-08-23T00:32:21;2.78;;;2.67;;
51174;SDS011;37240;50.104;20.010;2022-08-23T00:37:24;3.83;;;3.53;;
51174;SDS011;37240;50.104;20.010;2022-08-23T00:47:34;4.18;;;3.90;;
51174;SDS011;37240;50.104;20.010;2022-08-23T00:52:39;7.03;;;3.58;;
51174;SDS011;37240;50.104;20.010;2022-08-23T00:57:43;4.15;;;3.80;;
51174;SDS011;37240;50.104;20.010;2022-08-23T01:02:45;4.18;;;3.80;;
51174;SDS011;37240;50.104;20.010;2022-08-23T01:07:48;4.47;;;4.07;;
51174;SDS011;37240;50.104;20.010;2022-08-23T01:12:53;5.65;;;5.15;;
51174;SDS011;37240;50.104;20.010;2022-08-23T01:18:05;5.20;;;4.30;;
51174;SDS011;37240;50.104;20.010;2022-08-23T01:28:35;5.72;;;5.25;;
51174;SDS011;37240;50.104;20.010;2022-08-23T01:33:37;5.43;;;4.70;;
51174;SDS011;37240;50.104;20.010;2022-08-23T01:38:39;4.63;;;4.18;;
51174;SDS011;37240;50.104;20.010;2022-08-23T01:43:39;4.50;;;4.20;;
51174;SDS011;37240;50.104;20.010;2022-08-23T01:48:40;5.97;;;5.38;;
51174;SDS011;37240;50.104;20.010;2022-08-23T01:53:41;6.18;;;5.35;;
51174;SDS011;37240;50.104;20.010;2022-08-23T01:58:41;5.00;;;4.57;;
51174;SDS011;37240;50.104;20.010;2022-08-23T02:03:42;6.43;;;5.82;;
51174;SDS011;37240;50.104;20.010;2022-08-23T02:08:43;5.82;;;4.65;;
51174;SDS011;37240;50.104;20.010;2022-08-23T02:13:44;6.40;;;5.80;;
51174;SDS011;37240;50.104;20.010;2022-08-23T02:18:44;8.27;;;5.63;;
51174;SDS011;37240;50.104;20.010;2022-08-23T02:23:45;8.77;;;6.90;;
51174;SDS011;37240;50.104;20.010;2022-08-23T02:28:49;6.72;;;6.22;;
51174;SDS011;37240;50.104;20.010;2022-08-23T02:33:50;11.57;;;7.53;;
51174;SDS011;37240;50.104;20.010;2022-08-23T02:38:51;12.60;;;8.52;;
51174;SDS011;37240;50.104;20.010;2022-08-23T02:43:53;14.20;;;9.98;;
51174;SDS011;37240;50.104;20.010;2022-08-23T02:48:54;13.07;;;9.13;;
51174;SDS011;37240;50.104;20.010;2022-08-23T02:53:54;10.90;;;8.73;;
51174;SDS011;37240;50.104;20.010;2022-08-23T02:58:55;13.50;;;9.88;;
51174;SDS011;37240;50.104;20.010;2022-08-23T03:03:56;19.42;;;10.30;;
51174;SDS011;37240;50.104;20.010;2022-08-23T03:08:57;12.20;;;9.07;;
51174;SDS011;37240;50.104;20.010;2022-08-23T03:13:58;12.27;;;9.15;;
51174;SDS011;37240;50.104;20.010;2022-08-23T03:18:59;10.90;;;8.27;;
51174;SDS011;37240;50.104;20.010;2022-08-23T03:23:59;12.35;;;8.63;;
51174;SDS011;37240;50.104;20.010;2022-08-23T03:29:00;13.63;;;8.27;;
51174;SDS011;37240;50.104;20.010;2022-08-23T03:34:01;10.40;;;8.13;;
51174;SDS011;37240;50.104;20.010;2022-08-23T03:39:03;13.60;;;9.75;;
51174;SDS011;37240;50.104;20.010;2022-08-23T03:44:05;12.65;;;8.40;;
51174;SDS011;37240;50.104;20.010;2022-08-23T03:49:05;12.05;;;8.88;;
51174;SDS011;37240;50.104;20.010;2022-08-23T03:54:07;12.38;;;8.05;;
51174;SDS011;37240;50.104;20.010;2022-08-23T03:59:08;10.80;;;8.75;;
51174;SDS011;37240;50.104;20.010;2022-08-23T04:04:10;9.63;;;7.95;;
51174;SDS011;37240;50.104;20.010;2022-08-23T04:09:10;10.95;;;7.68;;
51174;SDS011;37240;50.104;20.010;2022-08-23T04:14:12;11.38;;;8.05;;
51174;SDS011;37240;50.104;20.010;2022-08-23T04:19:13;9.40;;;8.02;;
51174;SDS011;37240;50.104;20.010;2022-08-23T04:24:14;9.23;;;7.43;;
51174;SDS011;37240;50.104;20.010;2022-08-23T04:29:15;8.57;;;7.15;;
51174;SDS011;37240;50.104;20.010;2022-08-23T04:34:16;9.57;;;7.22;;
51174;SDS011;37240;50.104;20.010;2022-08-23T04:39:16;10.20;;;7.18;;
51174;SDS011;37240;50.104;20.010;2022-08-23T04:44:17;11.20;;;7.25;;
51174;SDS011;37240;50.104;20.010;2022-08-23T04:49:18;8.40;;;6.95;;
51174;SDS011;37240;50.104;20.010;2022-08-23T04:54:19;9.45;;;6.50;;
51174;SDS011;37240;50.104;20.010;2022-08-23T04:59:19;10.38;;;7.70;;
51174;SDS011;37240;50.104;20.010;2022-08-23T05:04:20;11.38;;;7.50;;
51174;SDS011;37240;50.104;20.010;2022-08-23T05:09:20;14.40;;;7.15;;
51174;SDS011;37240;50.104;20.010;2022-08-23T05:14:21;18.70;;;8.75;;
51174;SDS011;37240;50.104;20.010;2022-08-23T05:19:21;13.35;;;7.13;;
51174;SDS011;37240;50.104;20.010;2022-08-23T05:24:22;8.60;;;6.97;;
51174;SDS011;37240;50.104;20.010;2022-08-23T05:29:22;12.88;;;7.07;;
51174;SDS011;37240;50.104;20.010;2022-08-23T05:34:23;6.97;;;6.05;;
51174;SDS011;37240;50.104;20.010;2022-08-23T05:39:24;16.50;;;7.13;;
51174;SDS011;37240;50.104;20.010;2022-08-23T05:44:24;8.35;;;6.07;;
51174;SDS011;37240;50.104;20.010;2022-08-23T05:49:25;11.98;;;6.35;;
51174;SDS011;37240;50.104;20.010;2022-08-23T05:54:25;9.32;;;5.35;;
51174;SDS011;37240;50.104;20.010;2022-08-23T05:59:26;6.13;;;5.38;;
51174;SDS011;37240;50.104;20.010;2022-08-23T06:04:26;8.02;;;5.45;;
51174;SDS011;37240;50.104;20.010;2022-08-23T06:09:27;7.05;;;6.00;;
51174;SDS011;37240;50.104;20.010;2022-08-23T06:14:27;10.80;;;6.43;;
51174;SDS011;37240;50.104;20.010;2022-08-23T06:19:28;10.82;;;7.30;;
51174;SDS011;37240;50.104;20.010;2022-08-23T06:24:28;7.93;;;5.38;;
51174;SDS011;37240;50.104;20.010;2022-08-23T06:29:29;10.32;;;7.10;;
51174;SDS011;37240;50.104;20.010;2022-08-23T06:34:31;6.25;;;5.50;;
51174;SDS011;37240;50.104;20.010;2022-08-23T06:39:33;8.23;;;6.22;;
51174;SDS011;37240;50.104;20.010;2022-08-23T06:44:34;9.68;;;5.55;;
51174;SDS011;37240;50.104;20.010;2022-08-23T06:49:35;11.75;;;6.95;;
51174;SDS011;37240;50.104;20.010;2022-08-23T06:54:35;13.82;;;7.03;;
51174;SDS011;37240;50.104;20.010;2022-08-23T06:59:36;10.30;;;6.63;;
51174;SDS011;37240;50.104;20.010;2022-08-23T07:04:37;10.82;;;6.18;;
51174;SDS011;37240;50.104;20.010;2022-08-23T07:09:39;10.32;;;6.18;;
51174;SDS011;37240;50.104;20.010;2022-08-23T07:14:40;7.63;;;6.00;;
51174;SDS011;37240;50.104;20.010;2022-08-23T07:19:40;6.72;;;5.40;;
51174;SDS011;37240;50.104;20.010;2022-08-23T07:24:41;12.45;;;6.07;;
51174;SDS011;37240;50.104;20.010;2022-08-23T07:29:41;6.90;;;5.47;;
51174;SDS011;37240;50.104;20.010;2022-08-23T07:34:42;11.75;;;5.50;;
51174;SDS011;37240;50.104;20.010;2022-08-23T07:39:42;7.95;;;6.50;;
51174;SDS011;37240;50.104;20.010;2022-08-23T07:44:43;9.63;;;6.40;;
51174;SDS011;37240;50.104;20.010;2022-08-23T07:49:44;10.63;;;7.03;;
51174;SDS011;37240;50.104;20.010;2022-08-23T07:54:44;12.40;;;7.32;;
51174;SDS011;37240;50.104;20.010;2022-08-23T07:59:45;11.05;;;6.60;;
51174;SDS011;37240;50.104;20.010;2022-08-23T08:04:45;10.02;;;6.63;;
51174;SDS011;37240;50.104;20.010;2022-08-23T08:09:46;8.75;;;6.20;;
51174;SDS011;37240;50.104;20.010;2022-08-23T08:14:46;9.95;;;6.97;;
51174;SDS011;37240;50.104;20.010;2022-08-23T08:19:47;10.15;;;6.53;;
51174;SDS011;37240;50.104;20.010;2022-08-23T08:24:47;10.20;;;6.28;;
51174;SDS011;37240;50.104;20.010;2022-08-23T08:29:48;9.20;;;7.07;;
51174;SDS011;37240;50.104;20.010;2022-08-23T08:34:48;10.32;;;7.32;;
51174;SDS011;37240;50.104;20.010;2022-08-23T08:39:49;7.40;;;6.60;;
51174;SDS011;37240;50.104;20.010;2022-08-23T08:44:54;6.65;;;6.05;;
51174;SDS011;37240;50.104;20.010;2022-08-23T08:55:18;7.30;;;6.70;;
51174;SDS011;37240;50.104;20.010;2022-08-23T09:00:26;10.30;;;6.80;;
51174;SDS011;37240;50.104;20.010;2022-08-23T09:05:32;11.98;;;7.28;;
51174;SDS011;37240;50.104;20.010;2022-08-23T09:16:34;8.85;;;6.65;;
51174;SDS011;37240;50.104;20.010;2022-08-23T09:21:57;7.72;;;6.82;;
51174;SDS011;37240;50.104;20.010;2022-08-23T09:27:01;11.05;;;6.63;;
51174;SDS011;37240;50.104;20.010;2022-08-23T09:32:03;11.80;;;6.50;;
51174;SDS011;37240;50.104;20.010;2022-08-23T09:37:24;9.32;;;6.85;;
51174;SDS011;37240;50.104;20.010;2022-08-23T09:42:26;9.32;;;7.10;;
51174;SDS011;37240;50.104;20.010;2022-08-23T09:47:33;14.75;;;7.45;;
51174;SDS011;37240;50.104;20.010;2022-08-23T09:52:36;10.48;;;7.35;;
51174;SDS011;37240;50.104;20.010;2022-08-23T09:57:37;16.42;;;8.65;;
51174;SDS011;37240;50.104;20.010;2022-08-23T10:02:38;13.60;;;8.02;;
51174;SDS011;37240;50.104;20.010;2022-08-23T10:07:40;10.15;;;7.97;;
51174;SDS011;37240;50.104;20.010;2022-08-23T10:12:42;9.63;;;8.60;;
51174;SDS011;37240;50.104;20.010;2022-08-23T10:34:02;10.02;;;8.15;;
51174;SDS011;37240;50.104;20.010;2022-08-23T10:39:15;13.10;;;7.53;;
51174;SDS011;37240;50.104;20.010;2022-08-23T10:44:24;16.20;;;9.07;;
51174;SDS011;37240;50.104;20.010;2022-08-23T10:49:26;7.50;;;6.85;;
51174;SDS011;37240;50.104;20.010;2022-08-23T10:54:29;11.63;;;7.43;;
51174;SDS011;37240;50.104;20.010;2022-08-23T10:59:33;11.95;;;7.18;;
51174;SDS011;37240;50.104;20.010;2022-08-23T11:15:26;8.68;;;7.55;;
51174;SDS011;37240;50.104;20.010;2022-08-23T11:25:50;15.25;;;8.10;;
51174;SDS011;37240;50.104;20.010;2022-08-23T11:51:30;8.32;;;6.72;;
51174;SDS011;37240;50.104;20.010;2022-08-23T11:56:41;8.82;;;7.05;;
51174;SDS011;37240;50.104;20.010;2022-08-23T12:01:45;15.70;;;7.43;;
51174;SDS011;37240;50.104;20.010;2022-08-23T12:06:47;8.50;;;6.82;;
51174;SDS011;37240;50.104;20.010;2022-08-23T12:17:00;7.40;;;6.70;;
51174;SDS011;37240;50.104;20.010;2022-08-23T12:22:25;8.75;;;7.68;;
51174;SDS011;37240;50.104;20.010;2022-08-23T12:27:33;7.75;;;7.00;;
51174;SDS011;37240;50.104;20.010;2022-08-23T12:38:03;12.02;;;8.07;;
51174;SDS011;37240;50.104;20.010;2022-08-23T12:43:07;7.15;;;6.55;;
51174;SDS011;37240;50.104;20.010;2022-08-23T12:48:18;13.68;;;7.30;;
51174;SDS011;37240;50.104;20.010;2022-08-23T12:53:29;8.40;;;7.50;;
51174;SDS011;37240;50.104;20.010;2022-08-23T12:58:31;9.00;;;7.75;;
51174;SDS011;37240;50.104;20.010;2022-08-23T13:03:40;9.10;;;7.28;;
51174;SDS011;37240;50.104;20.010;2022-08-23T13:14:24;11.43;;;8.73;;
51174;SDS011;37240;50.104;20.010;2022-08-23T13:19:27;12.90;;;8.10;;
51174;SDS011;37240;50.104;20.010;2022-08-23T13:24:38;7.28;;;6.57;;
51174;SDS011;37240;50.104;20.010;2022-08-23T13:29:49;7.72;;;7.00;;
51174;SDS011;37240;50.104;20.010;2022-08-23T13:35:20;7.18;;;6.47;;
51174;SDS011;37240;50.104;20.010;2022-08-23T13:40:29;9.18;;;7.03;;
51174;SDS011;37240;50.104;20.010;2022-08-23T13:45:33;8.18;;;6.75;;
51174;SDS011;37240;50.104;20.010;2022-08-23T13:50:35;7.05;;;6.45;;
51174;SDS011;37240;50.104;20.010;2022-08-23T13:55:41;7.07;;;6.40;;
51174;SDS011;37240;50.104;20.010;2022-08-23T14:00:45;7.53;;;6.40;;
51174;SDS011;37240;50.104;20.010;2022-08-23T14:05:46;7.63;;;6.88;;
51174;SDS011;37240;50.104;20.010;2022-08-23T14:10:46;12.00;;;6.35;;
51174;SDS011;37240;50.104;20.010;2022-08-23T14:15:47;8.77;;;6.25;;
51174;SDS011;37240;50.104;20.010;2022-08-23T14:20:48;12.00;;;6.93;;
51174;SDS011;37240;50.104;20.010;2022-08-23T14:25:48;16.80;;;6.70;;
51174;SDS011;37240;50.104;20.010;2022-08-23T14:30:52;16.03;;;6.73;;
51174;SDS011;37240;50.104;20.010;2022-08-23T14:35:53;7.20;;;6.60;;
51174;SDS011;37240;50.104;20.010;2022-08-23T14:40:57;9.43;;;7.03;;
51174;SDS011;37240;50.104;20.010;2022-08-23T14:46:00;7.65;;;6.72;;
51174;SDS011;37240;50.104;20.010;2022-08-23T14:51:01;13.50;;;10.25;;
51174;SDS011;37240;50.104;20.010;2022-08-23T14:56:03;12.10;;;9.23;;
51174;SDS011;37240;50.104;20.010;2022-08-23T15:01:03;21.42;;;11.05;;
51174;SDS011;37240;50.104;20.010;2022-08-23T15:06:04;10.15;;;8.35;;
51174;SDS011;37240;50.104;20.010;2022-08-23T15:11:05;9.50;;;8.00;;
51174;SDS011;37240;50.104;20.010;2022-08-23T15:16:07;13.68;;;8.10;;
51174;SDS011;37240;50.104;20.010;2022-08-23T15:21:08;12.30;;;7.35;;
51174;SDS011;37240;50.104;20.010;2022-08-23T15:26:10;7.40;;;6.68;;
51174;SDS011;37240;50.104;20.010;2022-08-23T15:31:13;13.65;;;7.93;;
51174;SDS011;37240;50.104;20.010;2022-08-23T15:36:14;18.83;;;7.15;;
51174;SDS011;37240;50.104;20.010;2022-08-23T15:41:16;15.27;;;6.03;;
51174;SDS011;37240;50.104;20.010;2022-08-23T15:46:18;10.48;;;7.00;;
51174;SDS011;37240;50.104;20.010;2022-08-23T15:51:21;8.63;;;6.85;;
51174;SDS011;37240;50.104;20.010;2022-08-23T15:56:28;8.88;;;7.57;;
51174;SDS011;37240;50.104;20.010;2022-08-23T16:01:32;10.43;;;8.20;;
51174;SDS011;37240;50.104;20.010;2022-08-23T16:06:33;11.65;;;8.10;;
51174;SDS011;37240;50.104;20.010;2022-08-23T16:11:35;7.97;;;6.53;;
51174;SDS011;37240;50.104;20.010;2022-08-23T16:16:36;13.98;;;6.93;;
51174;SDS011;37240;50.104;20.010;2022-08-23T16:21:38;12.13;;;8.32;;
51174;SDS011;37240;50.104;20.010;2022-08-23T16:26:39;8.80;;;7.07;;
51174;SDS011;37240;50.104;20.010;2022-08-23T16:31:43;12.48;;;7.70;;
51174;SDS011;37240;50.104;20.010;2022-08-23T16:36:45;9.65;;;7.15;;
51174;SDS011;37240;50.104;20.010;2022-08-23T16:41:54;9.45;;;7.95;;
51174;SDS011;37240;50.104;20.010;2022-08-23T16:46:54;7.72;;;6.95;;
51174;SDS011;37240;50.104;20.010;2022-08-23T16:51:56;10.60;;;7.53;;
51174;SDS011;37240;50.104;20.010;2022-08-23T16:56:56;8.85;;;7.95;;
51174;SDS011;37240;50.104;20.010;2022-08-23T17:01:58;10.77;;;8.23;;
51174;SDS011;37240;50.104;20.010;2022-08-23T17:07:00;12.05;;;8.60;;
51174;SDS011;37240;50.104;20.010;2022-08-23T17:12:01;10.82;;;8.32;;
51174;SDS011;37240;50.104;20.010;2022-08-23T17:17:01;9.85;;;8.70;;
51174;SDS011;37240;50.104;20.010;2022-08-23T17:22:02;9.90;;;8.10;;
51174;SDS011;37240;50.104;20.010;2022-08-23T17:27:03;10.18;;;8.75;;
51174;SDS011;37240;50.104;20.010;2022-08-23T17:32:04;15.48;;;9.85;;
51174;SDS011;37240;50.104;20.010;2022-08-23T17:37:12;10.90;;;8.75;;
51174;SDS011;37240;50.104;20.010;2022-08-23T17:42:15;12.82;;;9.55;;
51174;SDS011;37240;50.104;20.010;2022-08-23T17:47:16;12.27;;;9.05;;
51174;SDS011;37240;50.104;20.010;2022-08-23T17:52:17;13.98;;;10.73;;
51174;SDS011;37240;50.104;20.010;2022-08-23T17:57:17;11.95;;;10.57;;
51174;SDS011;37240;50.104;20.010;2022-08-23T18:02:18;10.85;;;9.75;;
51174;SDS011;37240;50.104;20.010;2022-08-23T18:07:19;15.85;;;11.70;;
51174;SDS011;37240;50.104;20.010;2022-08-23T18:12:19;16.50;;;12.07;;
51174;SDS011;37240;50.104;20.010;2022-08-23T18:17:20;14.18;;;10.90;;
51174;SDS011;37240;50.104;20.010;2022-08-23T18:22:20;15.57;;;12.75;;
51174;SDS011;37240;50.104;20.010;2022-08-23T18:27:21;18.42;;;12.10;;
51174;SDS011;37240;50.104;20.010;2022-08-23T18:32:21;18.13;;;13.45;;
51174;SDS011;37240;50.104;20.010;2022-08-23T18:37:22;18.95;;;13.30;;
51174;SDS011;37240;50.104;20.010;2022-08-23T18:42:23;23.42;;;13.13;;
51174;SDS011;37240;50.104;20.010;2022-08-23T18:47:23;18.00;;;12.82;;
51174;SDS011;37240;50.104;20.010;2022-08-23T18:52:24;18.95;;;13.57;;
51174;SDS011;37240;50.104;20.010;2022-08-23T18:57:24;20.88;;;14.07;;
51174;SDS011;37240;50.104;20.010;2022-08-23T19:02:25;27.70;;;14.07;;
51174;SDS011;37240;50.104;20.010;2022-08-23T19:07:25;20.58;;;16.50;;
51174;SDS011;37240;50.104;20.010;2022-08-23T19:12:26;24.75;;;17.42;;
51174;SDS011;37240;50.104;20.010;2022-08-23T19:17:27;20.55;;;16.50;;
51174;SDS011;37240;50.104;20.010;2022-08-23T19:22:27;24.55;;;17.58;;
51174;SDS011;37240;50.104;20.010;2022-08-23T19:27:28;25.08;;;18.02;;
51174;SDS011;37240;50.104;20.010;2022-08-23T19:32:28;30.88;;;18.15;;
51174;SDS011;37240;50.104;20.010;2022-08-23T19:37:29;25.38;;;17.80;;
51174;SDS011;37240;50.104;20.010;2022-08-23T19:42:29;27.70;;;18.90;;
51174;SDS011;37240;50.104;20.010;2022-08-23T19:47:30;30.38;;;17.92;;
51174;SDS011;37240;50.104;20.010;2022-08-23T19:52:31;26.70;;;17.80;;
51174;SDS011;37240;50.104;20.010;2022-08-23T19:57:33;27.13;;;19.88;;
51174;SDS011;37240;50.104;20.010;2022-08-23T20:02:34;30.58;;;20.90;;
51174;SDS011;37240;50.104;20.010;2022-08-23T20:07:34;27.45;;;19.02;;
51174;SDS011;37240;50.104;20.010;2022-08-23T20:12:36;32.22;;;19.17;;
51174;SDS011;37240;50.104;20.010;2022-08-23T20:17:37;29.00;;;20.33;;
51174;SDS011;37240;50.104;20.010;2022-08-23T20:22:39;39.33;;;19.58;;
51174;SDS011;37240;50.104;20.010;2022-08-23T20:27:40;38.75;;;21.40;;
51174;SDS011;37240;50.104;20.010;2022-08-23T20:32:40;35.55;;;21.98;;
51174;SDS011;37240;50.104;20.010;2022-08-23T20:37:41;36.75;;;21.92;;
51174;SDS011;37240;50.104;20.010;2022-08-23T20:42:41;39.45;;;23.77;;
51174;SDS011;37240;50.104;20.010;2022-08-23T20:47:42;37.03;;;21.85;;
51174;SDS011;37240;50.104;20.010;2022-08-23T20:52:42;37.97;;;22.02;;
51174;SDS011;37240;50.104;20.010;2022-08-23T20:57:43;38.10;;;22.60;;
51174;SDS011;37240;50.104;20.010;2022-08-23T21:02:44;35.33;;;21.30;;
51174;SDS011;37240;50.104;20.010;2022-08-23T21:07:45;36.17;;;22.35;;
51174;SDS011;37240;50.104;20.010;2022-08-23T21:12:45;38.33;;;23.75;;
51174;SDS011;37240;50.104;20.010;2022-08-23T21:17:46;35.50;;;21.23;;
51174;SDS011;37240;50.104;20.010;2022-08-23T21:22:46;42.60;;;23.25;;
51174;SDS011;37240;50.104;20.010;2022-08-23T21:27:47;36.95;;;23.75;;
51174;SDS011;37240;50.104;20.010;2022-08-23T21:32:47;39.40;;;23.15;;
51174;SDS011;37240;50.104;20.010;2022-08-23T21:37:48;39.20;;;23.35;;
51174;SDS011;37240;50.104;20.010;2022-08-23T21:42:48;34.75;;;22.35;;
51174;SDS011;37240;50.104;20.010;2022-08-23T21:47:49;36.38;;;22.58;;
51174;SDS011;37240;50.104;20.010;2022-08-23T21:52:49;38.65;;;22.75;;
51174;SDS011;37240;50.104;20.010;2022-08-23T21:57:50;40.60;;;22.30;;
51174;SDS011;37240;50.104;20.010;2022-08-23T22:02:50;35.78;;;21.73;;
51174;SDS011;37240;50.104;20.010;2022-08-23T22:07:52;41.35;;;24.95;;
51174;SDS011;37240;50.104;20.010;2022-08-23T22:12:52;33.42;;;22.13;;
51174;SDS011;37240;50.104;20.010;2022-08-23T22:17:53;36.53;;;22.10;;
51174;SDS011;37240;50.104;20.010;2022-08-23T22:22:53;38.30;;;23.83;;
51174;SDS011;37240;50.104;20.010;2022-08-23T22:27:54;35.05;;;21.75;;
51174;SDS011;37240;50.104;20.010;2022-08-23T22:32:54;35.40;;;23.25;;
51174;SDS011;37240;50.104;20.010;2022-08-23T22:37:55;35.88;;;22.65;;
51174;SDS011;37240;50.104;20.010;2022-08-23T22:42:55;36.88;;;22.02;;
51174;SDS011;37240;50.104;20.010;2022-08-23T22:47:56;32.60;;;21.20;;
51174;SDS011;37240;50.104;20.010;2022-08-23T22:52:56;36.88;;;21.83;;
51174;SDS011;37240;50.104;20.010;2022-08-23T22:57:57;36.53;;;21.52;;
51174;SDS011;37240;50.104;20.010;2022-08-23T23:02:57;38.13;;;20.55;;
51174;SDS011;37240;50.104;20.010;2022-08-23T23:07:58;29.92;;;19.90;;
51174;SDS011;37240;50.104;20.010;2022-08-23T23:12:59;34.28;;;20.60;;
51174;SDS011;37240;50.104;20.010;2022-08-23T23:17:59;35.90;;;19.98;;
51174;SDS011;37240;50.104;20.010;2022-08-23T23:23:00;32.88;;;20.60;;
51174;SDS011;37240;50.104;20.010;2022-08-23T23:28:00;30.67;;;19.80;;
51174;SDS011;37240;50.104;20.010;2022-08-23T23:33:02;33.60;;;21.08;;
51174;SDS011;37240;50.104;20.010;2022-08-23T23:38:03;32.75;;;21.25;;
51174;SDS011;37240;50.104;20.010;2022-08-23T23:43:05;32.33;;;19.98;;
51174;SDS011;37240;50.104;20.010;2022-08-23T23:48:06;29.05;;;19.75;;
51174;SDS011;37240;50.104;20.010;2022-08-23T23:53:06;42.30;;;21.63;;
51174;SDS011;37240;50.104;20.010;2022-08-23T23:58:07;37.78;;;21.25;;
